sensor_id;sensor_type;location;lat;lon;timestamp;P1;durP1;ratioP1;P2;durP2;ratioP2
44606;SDS011;30315;46.072;14.474;2024-02-16T07:45:02;9.70;;;8.60;;
44606;SDS011;30315;46.072;14.474;2024-02-16T07:47:41;20.98;;;9.57;;
44606;SDS011;30315;46.072;14.474;2024-02-16T07:50:11;9.77;;;8.80;;
44606;SDS011;30315;46.072;14.474;2024-02-16T07:52:41;9.23;;;8.32;;
44606;SDS011;30315;46.072;14.474;2024-02-16T07:55:09;10.15;;;8.90;;
44606;SDS011;30315;46.072;14.474;2024-02-16T07:57:36;10.23;;;7.47;;
44606;SDS011;30315;46.072;14.474;2024-02-16T08:00:06;7.93;;;7.15;;
44606;SDS011;30315;46.072;14.474;2024-02-16T08:02:37;20.80;;;8.30;;
44606;SDS011;30315;46.072;14.474;2024-02-16T08:05:07;10.77;;;8.00;;
44606;SDS011;30315;46.072;14.474;2024-02-16T08:07:36;8.15;;;7.30;;
44606;SDS011;30315;46.072;14.474;2024-02-16T08:10:10;10.10;;;8.30;;
44606;SDS011;30315;46.072;14.474;2024-02-16T08:12:39;10.00;;;8.43;;
44606;SDS011;30315;46.072;14.474;2024-02-16T08:15:08;10.38;;;8.90;;
44606;SDS011;30315;46.072;14.474;2024-02-16T08:17:39;18.50;;;9.05;;
44606;SDS011;30315;46.072;14.474;2024-02-16T08:20:09;17.30;;;9.32;;
44606;SDS011;30315;46.072;14.474;2024-02-16T08:22:38;11.77;;;7.67;;
44606;SDS011;30315;46.072;14.474;2024-02-16T08:25:08;8.52;;;7.05;;
44606;SDS011;30315;46.072;14.474;2024-02-16T08:27:36;12.50;;;8.13;;
44606;SDS011;30315;46.072;14.474;2024-02-16T08:30:05;8.95;;;7.93;;
44606;SDS011;30315;46.072;14.474;2024-02-16T08:32:42;14.10;;;7.38;;
44606;SDS011;30315;46.072;14.474;2024-02-16T08:35:09;12.95;;;7.88;;
44606;SDS011;30315;46.072;14.474;2024-02-16T08:37:37;15.32;;;8.27;;
44606;SDS011;30315;46.072;14.474;2024-02-16T08:40:04;8.75;;;7.90;;
44606;SDS011;30315;46.072;14.474;2024-02-16T08:42:32;9.35;;;7.30;;
44606;SDS011;30315;46.072;14.474;2024-02-16T08:45:02;8.70;;;7.82;;
44606;SDS011;30315;46.072;14.474;2024-02-16T08:47:30;8.50;;;7.05;;
44606;SDS011;30315;46.072;14.474;2024-02-16T08:50:02;15.68;;;7.03;;
44606;SDS011;30315;46.072;14.474;2024-02-16T08:52:29;8.63;;;7.10;;
44606;SDS011;30315;46.072;14.474;2024-02-16T08:55:00;18.60;;;8.55;;
44606;SDS011;30315;46.072;14.474;2024-02-16T08:57:31;8.15;;;7.38;;
44606;SDS011;30315;46.072;14.474;2024-02-16T08:59:59;8.48;;;7.65;;
44606;SDS011;30315;46.072;14.474;2024-02-16T09:02:28;8.90;;;7.45;;
44606;SDS011;30315;46.072;14.474;2024-02-16T09:05:00;14.05;;;7.25;;
44606;SDS011;30315;46.072;14.474;2024-02-16T09:07:27;9.13;;;7.95;;
44606;SDS011;30315;46.072;14.474;2024-02-16T09:09:57;10.00;;;8.20;;
44606;SDS011;30315;46.072;14.474;2024-02-16T09:12:26;10.85;;;7.40;;
44606;SDS011;30315;46.072;14.474;2024-02-16T09:14:54;10.75;;;8.20;;
44606;SDS011;30315;46.072;14.474;2024-02-16T09:17:23;13.45;;;7.50;;
44606;SDS011;30315;46.072;14.474;2024-02-16T09:22:22;8.82;;;7.05;;
44606;SDS011;30315;46.072;14.474;2024-02-16T09:24:55;10.85;;;8.00;;
44606;SDS011;30315;46.072;14.474;2024-02-16T09:27:26;14.55;;;8.05;;
44606;SDS011;30315;46.072;14.474;2024-02-16T09:29:58;10.60;;;8.05;;
44606;SDS011;30315;46.072;14.474;2024-02-16T09:32:26;14.20;;;8.75;;
44606;SDS011;30315;46.072;14.474;2024-02-16T09:34:55;8.77;;;7.57;;
44606;SDS011;30315;46.072;14.474;2024-02-16T09:37:26;10.25;;;7.82;;
44606;SDS011;30315;46.072;14.474;2024-02-16T09:39:54;9.48;;;7.90;;
44606;SDS011;30315;46.072;14.474;2024-02-16T09:42:22;8.90;;;7.88;;
44606;SDS011;30315;46.072;14.474;2024-02-16T09:44:55;9.68;;;7.03;;
44606;SDS011;30315;46.072;14.474;2024-02-16T09:47:22;12.75;;;7.90;;
44606;SDS011;30315;46.072;14.474;2024-02-16T09:49:53;11.88;;;7.75;;
44606;SDS011;30315;46.072;14.474;2024-02-16T09:52:26;8.02;;;7.32;;
44606;SDS011;30315;46.072;14.474;2024-02-16T09:54:54;12.13;;;7.50;;
44606;SDS011;30315;46.072;14.474;2024-02-16T09:57:22;18.15;;;8.95;;
44606;SDS011;30315;46.072;14.474;2024-02-16T09:59:53;9.32;;;8.10;;
44606;SDS011;30315;46.072;14.474;2024-02-16T10:02:20;8.75;;;7.93;;
44606;SDS011;30315;46.072;14.474;2024-02-16T10:04:48;12.15;;;7.18;;
44606;SDS011;30315;46.072;14.474;2024-02-16T10:07:29;9.48;;;7.90;;
44606;SDS011;30315;46.072;14.474;2024-02-16T10:10:00;8.32;;;7.45;;
44606;SDS011;30315;46.072;14.474;2024-02-16T10:12:28;8.73;;;7.82;;
44606;SDS011;30315;46.072;14.474;2024-02-16T10:14:57;8.38;;;7.28;;
44606;SDS011;30315;46.072;14.474;2024-02-16T10:17:27;8.23;;;7.53;;
44606;SDS011;30315;46.072;14.474;2024-02-16T10:22:26;10.80;;;8.13;;
44606;SDS011;30315;46.072;14.474;2024-02-16T10:25:06;8.52;;;7.35;;
44606;SDS011;30315;46.072;14.474;2024-02-16T10:27:38;12.73;;;7.75;;
44606;SDS011;30315;46.072;14.474;2024-02-16T10:32:40;8.85;;;6.63;;
44606;SDS011;30315;46.072;14.474;2024-02-16T10:35:13;11.27;;;7.20;;
44606;SDS011;30315;46.072;14.474;2024-02-16T10:37:45;12.32;;;7.10;;
44606;SDS011;30315;46.072;14.474;2024-02-16T10:40:17;9.27;;;6.55;;
44606;SDS011;30315;46.072;14.474;2024-02-16T10:42:47;6.75;;;6.28;;
44606;SDS011;30315;46.072;14.474;2024-02-16T10:45:20;7.35;;;6.75;;
44606;SDS011;30315;46.072;14.474;2024-02-16T10:47:48;13.35;;;7.03;;
44606;SDS011;30315;46.072;14.474;2024-02-16T10:50:15;14.57;;;7.65;;
44606;SDS011;30315;46.072;14.474;2024-02-16T10:52:48;12.65;;;8.02;;
44606;SDS011;30315;46.072;14.474;2024-02-16T10:55:20;7.47;;;6.72;;
44606;SDS011;30315;46.072;14.474;2024-02-16T10:57:48;7.90;;;7.18;;
44606;SDS011;30315;46.072;14.474;2024-02-16T11:00:16;8.02;;;6.60;;
44606;SDS011;30315;46.072;14.474;2024-02-16T11:02:55;12.18;;;7.07;;
44606;SDS011;30315;46.072;14.474;2024-02-16T11:05:35;9.18;;;7.28;;
44606;SDS011;30315;46.072;14.474;2024-02-16T11:08:11;7.13;;;6.47;;
44606;SDS011;30315;46.072;14.474;2024-02-16T11:10:53;14.52;;;7.10;;
44606;SDS011;30315;46.072;14.474;2024-02-16T11:13:28;6.97;;;5.85;;
44606;SDS011;30315;46.072;14.474;2024-02-16T11:16:06;10.68;;;7.95;;
44606;SDS011;30315;46.072;14.474;2024-02-16T11:18:41;8.85;;;7.75;;
44606;SDS011;30315;46.072;14.474;2024-02-16T11:21:16;7.97;;;7.25;;
44606;SDS011;30315;46.072;14.474;2024-02-16T11:23:44;19.67;;;7.38;;
44606;SDS011;30315;46.072;14.474;2024-02-16T11:26:14;11.30;;;7.65;;
44606;SDS011;30315;46.072;14.474;2024-02-16T11:28:44;9.80;;;7.97;;
44606;SDS011;30315;46.072;14.474;2024-02-16T11:31:14;10.98;;;7.40;;
44606;SDS011;30315;46.072;14.474;2024-02-16T11:33:43;8.90;;;7.00;;
44606;SDS011;30315;46.072;14.474;2024-02-16T11:36:13;8.80;;;7.88;;
44606;SDS011;30315;46.072;14.474;2024-02-16T11:38:46;12.73;;;7.68;;
44606;SDS011;30315;46.072;14.474;2024-02-16T11:41:14;8.57;;;7.53;;
44606;SDS011;30315;46.072;14.474;2024-02-16T11:43:42;15.35;;;6.95;;
44606;SDS011;30315;46.072;14.474;2024-02-16T11:46:12;11.43;;;7.22;;
44606;SDS011;30315;46.072;14.474;2024-02-16T11:48:45;8.68;;;6.18;;
44606;SDS011;30315;46.072;14.474;2024-02-16T11:51:15;6.20;;;5.75;;
44606;SDS011;30315;46.072;14.474;2024-02-16T11:53:54;7.45;;;6.72;;
44606;SDS011;30315;46.072;14.474;2024-02-16T11:56:23;6.78;;;6.10;;
44606;SDS011;30315;46.072;14.474;2024-02-16T11:58:52;8.40;;;6.82;;
44606;SDS011;30315;46.072;14.474;2024-02-16T12:01:20;6.57;;;5.50;;
44606;SDS011;30315;46.072;14.474;2024-02-16T12:03:53;5.47;;;5.07;;
44606;SDS011;30315;46.072;14.474;2024-02-16T12:06:20;5.43;;;4.70;;
44606;SDS011;30315;46.072;14.474;2024-02-16T12:08:50;4.80;;;4.50;;
44606;SDS011;30315;46.072;14.474;2024-02-16T12:11:26;6.28;;;4.82;;
44606;SDS011;30315;46.072;14.474;2024-02-16T12:13:56;5.53;;;5.05;;
44606;SDS011;30315;46.072;14.474;2024-02-16T12:16:29;5.30;;;4.70;;
44606;SDS011;30315;46.072;14.474;2024-02-16T12:19:04;4.38;;;4.03;;
44606;SDS011;30315;46.072;14.474;2024-02-16T12:21:35;5.82;;;4.22;;
44606;SDS011;30315;46.072;14.474;2024-02-16T12:24:02;4.20;;;3.80;;
44606;SDS011;30315;46.072;14.474;2024-02-16T12:26:32;5.22;;;4.35;;
44606;SDS011;30315;46.072;14.474;2024-02-16T12:28:59;4.13;;;3.83;;
44606;SDS011;30315;46.072;14.474;2024-02-16T12:31:26;5.32;;;4.15;;
44606;SDS011;30315;46.072;14.474;2024-02-16T12:33:56;4.07;;;3.78;;
44606;SDS011;30315;46.072;14.474;2024-02-16T12:38:55;3.60;;;3.30;;
44606;SDS011;30315;46.072;14.474;2024-02-16T12:41:24;4.18;;;3.72;;
44606;SDS011;30315;46.072;14.474;2024-02-16T12:43:55;4.50;;;3.55;;
44606;SDS011;30315;46.072;14.474;2024-02-16T12:46:22;5.03;;;4.20;;
44606;SDS011;30315;46.072;14.474;2024-02-16T12:48:53;3.55;;;3.17;;
44606;SDS011;30315;46.072;14.474;2024-02-16T12:51:24;7.88;;;3.30;;
44606;SDS011;30315;46.072;14.474;2024-02-16T12:53:52;3.55;;;3.25;;
44606;SDS011;30315;46.072;14.474;2024-02-16T12:56:20;6.53;;;3.17;;
44606;SDS011;30315;46.072;14.474;2024-02-16T12:58:53;4.82;;;3.08;;
44606;SDS011;30315;46.072;14.474;2024-02-16T13:01:20;7.72;;;4.25;;
44606;SDS011;30315;46.072;14.474;2024-02-16T13:03:52;4.43;;;3.33;;
44606;SDS011;30315;46.072;14.474;2024-02-16T13:06:23;4.13;;;3.53;;
44606;SDS011;30315;46.072;14.474;2024-02-16T13:08:55;3.95;;;3.55;;
44606;SDS011;30315;46.072;14.474;2024-02-16T13:11:22;3.72;;;3.38;;
44606;SDS011;30315;46.072;14.474;2024-02-16T13:13:55;3.65;;;3.35;;
44606;SDS011;30315;46.072;14.474;2024-02-16T13:16:24;4.60;;;3.00;;
44606;SDS011;30315;46.072;14.474;2024-02-16T13:18:53;3.57;;;3.27;;
44606;SDS011;30315;46.072;14.474;2024-02-16T13:21:20;3.95;;;3.55;;
44606;SDS011;30315;46.072;14.474;2024-02-16T13:23:52;5.57;;;3.13;;
44606;SDS011;30315;46.072;14.474;2024-02-16T13:26:36;5.85;;;3.25;;
44606;SDS011;30315;46.072;14.474;2024-02-16T13:29:23;3.75;;;2.83;;
44606;SDS011;30315;46.072;14.474;2024-02-16T13:32:10;3.45;;;3.15;;
44606;SDS011;30315;46.072;14.474;2024-02-16T13:34:55;4.72;;;2.92;;
44606;SDS011;30315;46.072;14.474;2024-02-16T13:37:28;2.78;;;2.58;;
44606;SDS011;30315;46.072;14.474;2024-02-16T13:39:56;3.63;;;2.92;;
44606;SDS011;30315;46.072;14.474;2024-02-16T13:42:41;16.60;;;3.92;;
44606;SDS011;30315;46.072;14.474;2024-02-16T13:45:28;5.85;;;3.38;;
44606;SDS011;30315;46.072;14.474;2024-02-16T13:48:31;3.70;;;3.40;;
44606;SDS011;30315;46.072;14.474;2024-02-16T13:51:16;3.53;;;3.22;;
44606;SDS011;30315;46.072;14.474;2024-02-16T13:54:03;2.83;;;2.63;;
44606;SDS011;30315;46.072;14.474;2024-02-16T13:59:07;3.47;;;2.95;;
44606;SDS011;30315;46.072;14.474;2024-02-16T14:01:45;5.03;;;2.85;;
44606;SDS011;30315;46.072;14.474;2024-02-16T14:04:14;2.28;;;2.17;;
44606;SDS011;30315;46.072;14.474;2024-02-16T14:06:43;2.47;;;2.13;;
44606;SDS011;30315;46.072;14.474;2024-02-16T14:09:11;2.85;;;2.40;;
44606;SDS011;30315;46.072;14.474;2024-02-16T14:11:53;3.30;;;2.50;;
44606;SDS011;30315;46.072;14.474;2024-02-16T14:14:23;2.67;;;2.28;;
44606;SDS011;30315;46.072;14.474;2024-02-16T14:17:03;2.72;;;2.53;;
44606;SDS011;30315;46.072;14.474;2024-02-16T14:19:33;2.08;;;1.98;;
44606;SDS011;30315;46.072;14.474;2024-02-16T14:22:05;3.15;;;2.20;;
44606;SDS011;30315;46.072;14.474;2024-02-16T14:24:36;2.70;;;2.50;;
44606;SDS011;30315;46.072;14.474;2024-02-16T14:27:06;2.22;;;1.70;;
44606;SDS011;30315;46.072;14.474;2024-02-16T14:29:34;2.80;;;2.33;;
44606;SDS011;30315;46.072;14.474;2024-02-16T14:32:07;2.33;;;2.13;;
44606;SDS011;30315;46.072;14.474;2024-02-16T14:34:37;2.72;;;2.53;;
44606;SDS011;30315;46.072;14.474;2024-02-16T14:37:05;3.22;;;2.00;;
44606;SDS011;30315;46.072;14.474;2024-02-16T14:39:37;2.35;;;2.15;;
44606;SDS011;30315;46.072;14.474;2024-02-16T14:42:07;2.10;;;1.88;;
44606;SDS011;30315;46.072;14.474;2024-02-16T14:44:36;2.00;;;1.90;;
44606;SDS011;30315;46.072;14.474;2024-02-16T14:47:06;9.32;;;2.08;;
44606;SDS011;30315;46.072;14.474;2024-02-16T14:49:38;2.50;;;2.15;;
44606;SDS011;30315;46.072;14.474;2024-02-16T14:52:05;4.15;;;2.30;;
44606;SDS011;30315;46.072;14.474;2024-02-16T14:54:36;4.22;;;2.30;;
44606;SDS011;30315;46.072;14.474;2024-02-16T14:57:06;2.10;;;1.88;;
44606;SDS011;30315;46.072;14.474;2024-02-16T14:59:35;2.35;;;2.03;;
44606;SDS011;30315;46.072;14.474;2024-02-16T15:02:05;2.22;;;2.13;;
44606;SDS011;30315;46.072;14.474;2024-02-16T15:04:37;4.25;;;1.95;;
44606;SDS011;30315;46.072;14.474;2024-02-16T15:07:04;2.70;;;2.42;;
44606;SDS011;30315;46.072;14.474;2024-02-16T15:09:34;2.28;;;2.08;;
44606;SDS011;30315;46.072;14.474;2024-02-16T15:12:03;2.35;;;2.15;;
44606;SDS011;30315;46.072;14.474;2024-02-16T15:14:32;2.08;;;1.98;;
44606;SDS011;30315;46.072;14.474;2024-02-16T15:17:02;2.60;;;2.40;;
44606;SDS011;30315;46.072;14.474;2024-02-16T15:19:32;2.50;;;2.00;;
44606;SDS011;30315;46.072;14.474;2024-02-16T15:22:02;3.95;;;2.28;;
44606;SDS011;30315;46.072;14.474;2024-02-16T15:24:30;2.38;;;2.05;;
44606;SDS011;30315;46.072;14.474;2024-02-16T15:26:57;4.70;;;3.47;;
44606;SDS011;30315;46.072;14.474;2024-02-16T15:29:27;3.00;;;2.33;;
44606;SDS011;30315;46.072;14.474;2024-02-16T15:31:55;4.15;;;2.22;;
44606;SDS011;30315;46.072;14.474;2024-02-16T15:34:24;3.38;;;2.47;;
44606;SDS011;30315;46.072;14.474;2024-02-16T15:36:54;4.10;;;1.80;;
44606;SDS011;30315;46.072;14.474;2024-02-16T15:39:24;4.35;;;2.38;;
44606;SDS011;30315;46.072;14.474;2024-02-16T15:41:54;3.03;;;2.42;;
44606;SDS011;30315;46.072;14.474;2024-02-16T15:44:24;2.53;;;2.33;;
44606;SDS011;30315;46.072;14.474;2024-02-16T15:46:55;5.63;;;2.63;;
44606;SDS011;30315;46.072;14.474;2024-02-16T15:49:23;2.72;;;2.53;;
44606;SDS011;30315;46.072;14.474;2024-02-16T15:51:50;3.30;;;3.00;;
44606;SDS011;30315;46.072;14.474;2024-02-16T15:54:24;3.08;;;2.50;;
44606;SDS011;30315;46.072;14.474;2024-02-16T15:56:53;2.50;;;2.40;;
44606;SDS011;30315;46.072;14.474;2024-02-16T15:59:25;3.08;;;2.80;;
44606;SDS011;30315;46.072;14.474;2024-02-16T16:01:53;4.10;;;2.72;;
44606;SDS011;30315;46.072;14.474;2024-02-16T16:04:22;3.28;;;3.03;;
44606;SDS011;30315;46.072;14.474;2024-02-16T16:06:51;2.92;;;2.70;;
44606;SDS011;30315;46.072;14.474;2024-02-16T16:09:19;7.90;;;3.22;;
44606;SDS011;30315;46.072;14.474;2024-02-16T16:11:49;2.55;;;2.35;;
44606;SDS011;30315;46.072;14.474;2024-02-16T16:14:17;2.80;;;2.45;;
44606;SDS011;30315;46.072;14.474;2024-02-16T16:16:55;3.53;;;3.22;;
44606;SDS011;30315;46.072;14.474;2024-02-16T16:19:25;4.40;;;3.05;;
44606;SDS011;30315;46.072;14.474;2024-02-16T16:21:52;4.35;;;3.20;;
44606;SDS011;30315;46.072;14.474;2024-02-16T16:24:22;3.85;;;2.70;;
44606;SDS011;30315;46.072;14.474;2024-02-16T16:26:52;6.22;;;2.83;;
44606;SDS011;30315;46.072;14.474;2024-02-16T16:29:20;6.47;;;3.63;;
44606;SDS011;30315;46.072;14.474;2024-02-16T16:34:26;4.55;;;2.65;;
44606;SDS011;30315;46.072;14.474;2024-02-16T16:36:58;3.28;;;2.63;;
44606;SDS011;30315;46.072;14.474;2024-02-16T16:39:28;4.00;;;3.42;;
44606;SDS011;30315;46.072;14.474;2024-02-16T16:42:04;3.78;;;3.40;;
44606;SDS011;30315;46.072;14.474;2024-02-16T16:44:39;3.95;;;3.50;;
44606;SDS011;30315;46.072;14.474;2024-02-16T16:47:09;5.40;;;4.30;;
44606;SDS011;30315;46.072;14.474;2024-02-16T16:49:39;6.72;;;4.82;;
44606;SDS011;30315;46.072;14.474;2024-02-16T16:52:08;9.20;;;4.70;;
44606;SDS011;30315;46.072;14.474;2024-02-16T16:54:37;3.10;;;2.90;;
44606;SDS011;30315;46.072;14.474;2024-02-16T16:57:07;3.38;;;3.08;;
44606;SDS011;30315;46.072;14.474;2024-02-16T16:59:34;3.63;;;3.40;;
44606;SDS011;30315;46.072;14.474;2024-02-16T17:02:04;3.45;;;3.03;;
44606;SDS011;30315;46.072;14.474;2024-02-16T17:04:34;4.10;;;3.72;;
44606;SDS011;30315;46.072;14.474;2024-02-16T17:07:01;7.68;;;4.05;;
44606;SDS011;30315;46.072;14.474;2024-02-16T17:09:31;4.93;;;4.53;;
44606;SDS011;30315;46.072;14.474;2024-02-16T17:12:01;4.95;;;4.43;;
44606;SDS011;30315;46.072;14.474;2024-02-16T17:14:31;3.95;;;3.63;;
44606;SDS011;30315;46.072;14.474;2024-02-16T17:16:59;4.03;;;3.72;;
44606;SDS011;30315;46.072;14.474;2024-02-16T17:19:31;4.35;;;3.95;;
44606;SDS011;30315;46.072;14.474;2024-02-16T17:22:03;3.47;;;3.17;;
44606;SDS011;30315;46.072;14.474;2024-02-16T17:24:30;3.38;;;3.15;;
44606;SDS011;30315;46.072;14.474;2024-02-16T17:26:58;6.43;;;3.78;;
44606;SDS011;30315;46.072;14.474;2024-02-16T17:29:32;4.47;;;3.47;;
44606;SDS011;30315;46.072;14.474;2024-02-16T17:31:59;3.60;;;3.30;;
44606;SDS011;30315;46.072;14.474;2024-02-16T17:34:27;3.25;;;2.80;;
44606;SDS011;30315;46.072;14.474;2024-02-16T17:37:16;6.10;;;4.15;;
44606;SDS011;30315;46.072;14.474;2024-02-16T17:39:57;3.33;;;3.13;;
44606;SDS011;30315;46.072;14.474;2024-02-16T17:42:30;3.58;;;3.38;;
44606;SDS011;30315;46.072;14.474;2024-02-16T17:44:59;4.88;;;4.38;;
44606;SDS011;30315;46.072;14.474;2024-02-16T17:47:27;3.92;;;3.65;;
44606;SDS011;30315;46.072;14.474;2024-02-16T17:49:57;5.13;;;4.63;;
44606;SDS011;30315;46.072;14.474;2024-02-16T17:54:54;8.77;;;5.43;;
44606;SDS011;30315;46.072;14.474;2024-02-16T17:57:23;10.43;;;5.20;;
44606;SDS011;30315;46.072;14.474;2024-02-16T17:59:52;17.15;;;4.72;;
44606;SDS011;30315;46.072;14.474;2024-02-16T18:02:30;7.03;;;5.43;;
44606;SDS011;30315;46.072;14.474;2024-02-16T18:05:42;5.22;;;4.70;;
44606;SDS011;30315;46.072;14.474;2024-02-16T18:08:11;4.97;;;4.40;;
44606;SDS011;30315;46.072;14.474;2024-02-16T18:10:40;6.40;;;4.55;;
44606;SDS011;30315;46.072;14.474;2024-02-16T18:13:09;4.90;;;4.45;;
44606;SDS011;30315;46.072;14.474;2024-02-16T18:15:40;6.85;;;4.97;;
44606;SDS011;30315;46.072;14.474;2024-02-16T18:18:11;8.07;;;5.68;;
44606;SDS011;30315;46.072;14.474;2024-02-16T18:20:39;5.70;;;5.15;;
44606;SDS011;30315;46.072;14.474;2024-02-16T18:23:06;8.85;;;4.82;;
44606;SDS011;30315;46.072;14.474;2024-02-16T18:25:38;6.72;;;5.25;;
44606;SDS011;30315;46.072;14.474;2024-02-16T18:28:05;12.13;;;5.93;;
44606;SDS011;30315;46.072;14.474;2024-02-16T18:30:35;7.93;;;5.13;;
44606;SDS011;30315;46.072;14.474;2024-02-16T18:33:10;8.30;;;6.15;;
44606;SDS011;30315;46.072;14.474;2024-02-16T18:35:38;6.82;;;6.10;;
44606;SDS011;30315;46.072;14.474;2024-02-16T18:38:07;7.75;;;6.15;;
44606;SDS011;30315;46.072;14.474;2024-02-16T18:40:34;6.22;;;5.70;;
44606;SDS011;30315;46.072;14.474;2024-02-16T18:43:04;6.18;;;5.63;;
44606;SDS011;30315;46.072;14.474;2024-02-16T18:45:33;7.95;;;6.50;;
44606;SDS011;30315;46.072;14.474;2024-02-16T18:48:01;9.10;;;6.45;;
44606;SDS011;30315;46.072;14.474;2024-02-16T18:50:31;6.45;;;5.80;;
44606;SDS011;30315;46.072;14.474;2024-02-16T18:52:58;6.75;;;5.95;;
44606;SDS011;30315;46.072;14.474;2024-02-16T18:55:27;8.95;;;7.53;;
44606;SDS011;30315;46.072;14.474;2024-02-16T18:57:57;8.15;;;7.35;;
44606;SDS011;30315;46.072;14.474;2024-02-16T19:00:24;6.72;;;5.93;;
44606;SDS011;30315;46.072;14.474;2024-02-16T19:02:58;5.63;;;5.15;;
44606;SDS011;30315;46.072;14.474;2024-02-16T19:05:30;5.50;;;4.53;;
44606;SDS011;30315;46.072;14.474;2024-02-16T19:07:59;6.28;;;5.15;;
44606;SDS011;30315;46.072;14.474;2024-02-16T19:10:28;16.90;;;5.03;;
44606;SDS011;30315;46.072;14.474;2024-02-16T19:12:58;7.40;;;5.80;;
44606;SDS011;30315;46.072;14.474;2024-02-16T19:15:25;5.88;;;5.40;;
44606;SDS011;30315;46.072;14.474;2024-02-16T19:18:01;13.20;;;6.85;;
44606;SDS011;30315;46.072;14.474;2024-02-16T19:20:34;7.32;;;6.25;;
44606;SDS011;30315;46.072;14.474;2024-02-16T19:23:01;8.27;;;7.13;;
44606;SDS011;30315;46.072;14.474;2024-02-16T19:25:29;11.27;;;7.25;;
44606;SDS011;30315;46.072;14.474;2024-02-16T19:27:58;8.63;;;5.95;;
44606;SDS011;30315;46.072;14.474;2024-02-16T19:30:26;7.22;;;6.55;;
44606;SDS011;30315;46.072;14.474;2024-02-16T19:32:53;7.25;;;6.55;;
44606;SDS011;30315;46.072;14.474;2024-02-16T19:35:23;7.50;;;6.32;;
44606;SDS011;30315;46.072;14.474;2024-02-16T19:37:52;12.35;;;6.82;;
44606;SDS011;30315;46.072;14.474;2024-02-16T19:40:19;8.48;;;6.78;;
44606;SDS011;30315;46.072;14.474;2024-02-16T19:42:47;7.95;;;7.03;;
44606;SDS011;30315;46.072;14.474;2024-02-16T19:45:20;19.17;;;8.23;;
44606;SDS011;30315;46.072;14.474;2024-02-16T19:47:54;8.07;;;6.72;;
44606;SDS011;30315;46.072;14.474;2024-02-16T19:50:24;7.55;;;5.80;;
44606;SDS011;30315;46.072;14.474;2024-02-16T19:52:54;6.57;;;6.07;;
44606;SDS011;30315;46.072;14.474;2024-02-16T19:55:22;8.20;;;7.40;;
44606;SDS011;30315;46.072;14.474;2024-02-16T19:57:52;11.90;;;7.22;;
44606;SDS011;30315;46.072;14.474;2024-02-16T20:00:22;13.23;;;9.05;;
44606;SDS011;30315;46.072;14.474;2024-02-16T20:02:50;10.82;;;7.78;;
44606;SDS011;30315;46.072;14.474;2024-02-16T20:05:21;10.60;;;8.60;;
44606;SDS011;30315;46.072;14.474;2024-02-16T20:07:53;10.93;;;7.15;;
44606;SDS011;30315;46.072;14.474;2024-02-16T20:10:21;8.23;;;7.53;;
44606;SDS011;30315;46.072;14.474;2024-02-16T20:12:57;16.65;;;7.85;;
44606;SDS011;30315;46.072;14.474;2024-02-16T20:15:28;9.60;;;8.05;;
44606;SDS011;30315;46.072;14.474;2024-02-16T20:17:57;8.25;;;7.45;;
44606;SDS011;30315;46.072;14.474;2024-02-16T20:20:31;13.45;;;9.20;;
44606;SDS011;30315;46.072;14.474;2024-02-16T20:23:02;15.90;;;9.95;;
44606;SDS011;30315;46.072;14.474;2024-02-16T20:25:30;20.75;;;8.70;;
44606;SDS011;30315;46.072;14.474;2024-02-16T20:27:57;8.75;;;7.85;;
44606;SDS011;30315;46.072;14.474;2024-02-16T20:30:31;20.52;;;8.73;;
44606;SDS011;30315;46.072;14.474;2024-02-16T20:32:59;8.45;;;7.15;;
44606;SDS011;30315;46.072;14.474;2024-02-16T20:35:31;8.90;;;7.85;;
44606;SDS011;30315;46.072;14.474;2024-02-16T20:38:06;8.88;;;6.88;;
44606;SDS011;30315;46.072;14.474;2024-02-16T20:40:33;8.20;;;5.82;;
44606;SDS011;30315;46.072;14.474;2024-02-16T20:43:01;11.73;;;5.93;;
44606;SDS011;30315;46.072;14.474;2024-02-16T20:45:34;6.22;;;5.72;;
44606;SDS011;30315;46.072;14.474;2024-02-16T20:48:05;8.93;;;6.57;;
44606;SDS011;30315;46.072;14.474;2024-02-16T20:50:33;11.85;;;7.00;;
44606;SDS011;30315;46.072;14.474;2024-02-16T20:53:03;7.32;;;6.53;;
44606;SDS011;30315;46.072;14.474;2024-02-16T20:55:30;13.23;;;7.28;;
44606;SDS011;30315;46.072;14.474;2024-02-16T20:57:58;9.13;;;7.75;;
44606;SDS011;30315;46.072;14.474;2024-02-16T21:00:32;6.78;;;6.00;;
44606;SDS011;30315;46.072;14.474;2024-02-16T21:02:59;8.20;;;7.40;;
44606;SDS011;30315;46.072;14.474;2024-02-16T21:05:28;6.88;;;6.13;;
44606;SDS011;30315;46.072;14.474;2024-02-16T21:08:02;8.73;;;6.63;;
44606;SDS011;30315;46.072;14.474;2024-02-16T21:10:31;9.60;;;7.97;;
44606;SDS011;30315;46.072;14.474;2024-02-16T21:12:59;13.55;;;8.05;;
44606;SDS011;30315;46.072;14.474;2024-02-16T21:15:29;16.30;;;9.68;;
44606;SDS011;30315;46.072;14.474;2024-02-16T21:17:57;22.45;;;9.50;;
44606;SDS011;30315;46.072;14.474;2024-02-16T21:20:26;14.05;;;8.05;;
44606;SDS011;30315;46.072;14.474;2024-02-16T21:22:54;9.43;;;8.18;;
44606;SDS011;30315;46.072;14.474;2024-02-16T21:27:51;8.57;;;6.10;;
44606;SDS011;30315;46.072;14.474;2024-02-16T21:30:20;18.95;;;7.30;;
44606;SDS011;30315;46.072;14.474;2024-02-16T21:32:50;8.80;;;7.75;;
44606;SDS011;30315;46.072;14.474;2024-02-16T21:35:17;7.50;;;6.80;;
44606;SDS011;30315;46.072;14.474;2024-02-16T21:37:50;14.48;;;7.07;;
44606;SDS011;30315;46.072;14.474;2024-02-16T21:40:21;14.27;;;8.15;;
44606;SDS011;30315;46.072;14.474;2024-02-16T21:42:49;7.90;;;7.03;;
44606;SDS011;30315;46.072;14.474;2024-02-16T21:45:19;13.48;;;8.65;;
44606;SDS011;30315;46.072;14.474;2024-02-16T21:47:50;16.45;;;7.80;;
44606;SDS011;30315;46.072;14.474;2024-02-16T21:50:22;10.52;;;8.63;;
44606;SDS011;30315;46.072;14.474;2024-02-16T21:53:41;9.10;;;7.82;;
44606;SDS011;30315;46.072;14.474;2024-02-16T21:56:11;9.32;;;7.90;;
44606;SDS011;30315;46.072;14.474;2024-02-16T21:58:38;9.45;;;8.13;;
44606;SDS011;30315;46.072;14.474;2024-02-16T22:01:09;9.48;;;8.20;;
44606;SDS011;30315;46.072;14.474;2024-02-16T22:03:39;16.05;;;9.32;;
44606;SDS011;30315;46.072;14.474;2024-02-16T22:06:07;14.50;;;9.15;;
44606;SDS011;30315;46.072;14.474;2024-02-16T22:08:37;11.52;;;9.43;;
44606;SDS011;30315;46.072;14.474;2024-02-16T22:11:13;10.65;;;8.02;;
44606;SDS011;30315;46.072;14.474;2024-02-16T22:14:02;8.90;;;7.65;;
44606;SDS011;30315;46.072;14.474;2024-02-16T22:16:33;7.45;;;6.63;;
44606;SDS011;30315;46.072;14.474;2024-02-16T22:19:01;12.80;;;8.70;;
44606;SDS011;30315;46.072;14.474;2024-02-16T22:21:29;10.52;;;8.00;;
44606;SDS011;30315;46.072;14.474;2024-02-16T22:24:08;16.10;;;8.43;;
44606;SDS011;30315;46.072;14.474;2024-02-16T22:26:37;10.15;;;7.82;;
44606;SDS011;30315;46.072;14.474;2024-02-16T22:29:07;9.70;;;7.10;;
44606;SDS011;30315;46.072;14.474;2024-02-16T22:31:34;11.68;;;6.78;;
44606;SDS011;30315;46.072;14.474;2024-02-16T22:34:11;11.25;;;7.35;;
44606;SDS011;30315;46.072;14.474;2024-02-16T22:36:39;13.32;;;8.25;;
44606;SDS011;30315;46.072;14.474;2024-02-16T22:39:10;11.90;;;8.65;;
44606;SDS011;30315;46.072;14.474;2024-02-16T22:41:43;17.35;;;7.75;;
44606;SDS011;30315;46.072;14.474;2024-02-16T22:44:10;10.85;;;8.65;;
44606;SDS011;30315;46.072;14.474;2024-02-16T22:46:38;19.13;;;9.15;;
44606;SDS011;30315;46.072;14.474;2024-02-16T22:49:09;10.20;;;7.82;;
44606;SDS011;30315;46.072;14.474;2024-02-16T22:51:36;9.80;;;8.48;;
44606;SDS011;30315;46.072;14.474;2024-02-16T22:54:14;12.20;;;8.95;;
44606;SDS011;30315;46.072;14.474;2024-02-16T22:56:48;8.63;;;7.80;;